Terminal Aerodrome Forecast
Issued by NWS

Home | Current Version | Previous Version | Text Only | Print | Product List | Glossary On
Versions: 1 2 3 4 5 6 7 8 9 10 11 12 13 14 15 16 17 18
000
FTUS43 KLSX 280600 CCA
TAFCPS
TAF COR
KCPS 280621Z 2806/2906 22011G20KT P6SM BKN060
     FM280730 23011KT 5SM -SHRA VCTS BKN040CB
     FM281100 30011G19KT P6SM SCT040 BKN080
      TEMPO 2811/2812 5SM -SHRA
     FM281600 29012KT P6SM SCT250
     FM290000 28005KT P6SM SKC=

USA.gov is the U.S. government's official web portal to all federal, state and local government web resources and services.